createdAt,value
2023-03-08T00:05:22.397Z,23.8
2023-03-08T00:15:23.195Z,24.1
2023-03-08T00:25:23.683Z,23.7
2023-03-08T00:35:23.862Z,26
2023-03-08T00:45:23.730Z,23.7
2023-03-08T00:55:23.524Z,24.3
2023-03-08T01:05:23.814Z,24.1
2023-03-08T01:15:24.146Z,23.9
2023-03-08T01:25:23.820Z,23.7
2023-03-08T01:35:24.518Z,23.5
2023-03-08T01:45:25.489Z,26.3
2023-03-08T01:55:25.680Z,24.1
2023-03-08T02:05:26.187Z,26.1
2023-03-08T02:15:25.729Z,23.5
2023-03-08T02:25:27.827Z,26.1
2023-03-08T02:35:28.682Z,25.8
2023-03-08T02:45:30.475Z,26.3
2023-03-08T02:55:30.214Z,24.1
2023-03-08T03:05:08.551Z,24
2023-03-08T03:15:09.752Z,23.4
2023-03-08T03:25:09.464Z,23.8
2023-03-08T03:35:10.613Z,23.9
2023-03-08T03:45:12.887Z,23.4
2023-03-08T03:55:13.928Z,23.5
2023-03-08T04:05:15.732Z,23.6
2023-03-08T04:15:17.283Z,23.7
2023-03-08T04:25:20.143Z,23.7
2023-03-08T04:35:22.187Z,23.8
2023-03-08T04:45:23.313Z,23.8
2023-03-08T04:55:24.920Z,23.4
2023-03-08T05:05:25.220Z,23.8
2023-03-08T05:15:25.688Z,23.6
2023-03-08T05:25:26.352Z,23.8
2023-03-08T05:35:26.730Z,23.7
2023-03-08T05:45:27.976Z,23.8
2023-03-08T05:55:28.826Z,24.3
2023-03-08T06:05:29.207Z,23.8
2023-03-08T06:15:39.625Z,35.9
2023-03-08T06:25:57.076Z,36.8
2023-03-08T06:36:13.814Z,37.6
2023-03-08T06:46:31.046Z,38
2023-03-08T06:56:49.459Z,34.3
2023-03-08T07:07:07.116Z,37.6
2023-03-08T07:17:25.753Z,35.9
2023-03-08T07:27:36.839Z,35.9
2023-03-08T07:37:51.270Z,35.3
2023-03-08T07:48:07.511Z,35.8
2023-03-08T07:58:22.091Z,35.3
2023-03-08T08:08:35.354Z,37.2
2023-03-08T08:18:51.630Z,36.9
2023-03-08T08:29:09.289Z,37.5
2023-03-08T08:39:26.424Z,37.3
2023-03-08T08:49:40.111Z,35.7
2023-03-08T08:59:53.365Z,34.3
2023-03-08T09:05:13.834Z,34.3
2023-03-08T09:15:25.276Z,35.4
2023-03-08T09:25:33.932Z,34.4
2023-03-08T09:35:45.675Z,36.2
2023-03-08T09:45:58.166Z,36.6
2023-03-08T09:56:12.958Z,27.2
2023-03-08T10:06:27.147Z,34.6
2023-03-08T10:16:44.279Z,35
2023-03-08T10:27:04.984Z,39.3
2023-03-08T10:37:25.292Z,38.9
2023-03-08T10:47:45.823Z,24.7
2023-03-08T10:58:05.814Z,39.2
2023-03-08T11:08:24.717Z,39.3
2023-03-08T11:18:43.613Z,39.2
2023-03-08T11:29:02.482Z,38.9
2023-03-08T11:39:20.681Z,38.6
2023-03-08T11:49:39.345Z,38.6
2023-03-08T11:59:56.383Z,39.4
2023-03-08T12:10:15.126Z,38.9
2023-03-08T12:20:33.284Z,38.1
2023-03-08T12:30:48.521Z,29.9
2023-03-08T12:41:01.250Z,25
2023-03-08T12:51:12.775Z,33.3
2023-03-08T13:01:22.264Z,34.4
2023-03-08T13:11:28.735Z,27.3
2023-03-08T13:21:33.989Z,29.5
2023-03-08T13:31:38.992Z,28.9
2023-03-08T13:41:43.771Z,26.6
2023-03-08T13:51:47.346Z,27.6
2023-03-08T14:01:50.523Z,27.2
2023-03-08T14:11:53.521Z,27.1
2023-03-08T14:21:56.664Z,27.3
2023-03-08T14:32:00.041Z,27.9
2023-03-08T14:42:03.003Z,27.4
2023-03-08T14:52:03.603Z,24.3
2023-03-08T15:05:08.505Z,24.9
2023-03-08T15:15:07.670Z,24.4
2023-03-08T15:25:08.584Z,24.3
2023-03-08T15:35:10.048Z,24.4
2023-03-08T15:45:10.843Z,24.2
2023-03-08T15:55:11.268Z,24.9
2023-03-08T16:05:14.698Z,26.7
2023-03-08T16:15:19.038Z,26.9
2023-03-08T16:25:23.588Z,27.1
2023-03-08T16:35:28.161Z,26.3
2023-03-08T16:45:32.661Z,26.8
2023-03-08T16:55:37.198Z,26.9
2023-03-08T17:05:40.379Z,26.8
2023-03-08T17:15:43.738Z,26.4
2023-03-08T17:25:46.805Z,26.9
2023-03-08T17:35:50.223Z,26.9
2023-03-08T17:45:53.628Z,26.7
2023-03-08T17:55:56.673Z,27.2
2023-03-08T18:05:59.802Z,26.6
2023-03-08T18:16:03.119Z,26.6
2023-03-08T18:26:06.336Z,26.8
2023-03-08T18:36:09.547Z,26.6
2023-03-08T18:46:13.028Z,26.4
2023-03-08T18:56:16.202Z,26.4
2023-03-08T19:06:19.321Z,26.6
2023-03-08T19:16:22.600Z,26.9
2023-03-08T19:26:25.814Z,26.7
2023-03-08T19:36:29.096Z,26.4
2023-03-08T19:46:32.801Z,26.3
2023-03-08T19:56:35.763Z,26.5
2023-03-08T20:06:38.938Z,26.6
2023-03-08T20:16:42.337Z,26.8
2023-03-08T20:26:45.576Z,26.7
2023-03-08T20:36:48.836Z,26.2
2023-03-08T20:46:53.280Z,26.8
2023-03-08T20:56:55.446Z,26.5
2023-03-08T21:05:10.207Z,26.8
2023-03-08T21:15:13.492Z,26.4
2023-03-08T21:25:16.743Z,26.3
2023-03-08T21:35:20.104Z,26.3
2023-03-08T21:45:23.370Z,26.1
2023-03-08T21:55:26.629Z,26.3
2023-03-08T22:05:30.814Z,26.5
2023-03-08T22:15:35.436Z,25.8
2023-03-08T22:25:39.895Z,26.5
2023-03-08T22:35:44.671Z,26.8
2023-03-08T22:45:49.128Z,26.4
2023-03-08T22:55:53.796Z,26.9
2023-03-08T23:05:56.888Z,26.5
2023-03-08T23:16:00.243Z,26.6
2023-03-08T23:26:03.567Z,26.7
2023-03-08T23:36:06.999Z,26.6
2023-03-08T23:46:10.255Z,26.8
2023-03-08T23:56:13.391Z,26.4
